createdAt,value
2022-11-08T00:02:21.453Z,100828.34
2022-11-08T00:04:48.057Z,100836.56
2022-11-08T00:07:33.002Z,100833.94
2022-11-08T00:10:18.003Z,100831.78
2022-11-08T00:13:03.183Z,100839.41
2022-11-08T00:15:33.394Z,100840.00
2022-11-08T00:17:59.952Z,100842.22
2022-11-08T00:20:26.464Z,100838.16
2022-11-08T00:22:53.001Z,100845.81
2022-11-08T00:25:19.517Z,100848.53
2022-11-08T00:27:46.036Z,100854.22
2022-11-08T00:30:12.722Z,100859.16
2022-11-08T00:32:39.623Z,100856.88
2022-11-08T00:35:06.734Z,100845.34
2022-11-08T00:37:33.266Z,100844.50
2022-11-08T00:39:59.779Z,100849.16
2022-11-08T00:42:26.345Z,100841.47
2022-11-08T00:44:52.889Z,100847.41
2022-11-08T00:47:19.378Z,100842.19
2022-11-08T00:49:45.908Z,100845.19
2022-11-08T00:52:12.397Z,100845.44
2022-11-08T00:54:38.922Z,100840.19
2022-11-08T00:57:05.473Z,100851.63
2022-11-08T00:59:32.062Z,100845.56
2022-11-08T01:01:58.634Z,100845.00
2022-11-08T01:04:25.386Z,100856.44
2022-11-08T01:06:51.886Z,100840.53
2022-11-08T01:09:18.416Z,100837.47
2022-11-08T01:11:46.703Z,100837.97
2022-11-08T01:14:14.672Z,100836.91
2022-11-08T01:16:41.945Z,100837.38
2022-11-08T01:19:08.556Z,100832.16
2022-11-08T01:21:35.425Z,100844.66
2022-11-08T01:24:01.990Z,100842.75
2022-11-08T01:26:29.715Z,100843.00
2022-11-08T01:28:57.839Z,100834.19
2022-11-08T01:31:30.686Z,100831.72
2022-11-08T01:33:58.619Z,100840.41
2022-11-08T01:36:26.788Z,100839.56
2022-11-08T01:38:54.207Z,100836.53
2022-11-08T01:41:23.588Z,100835.13
2022-11-08T01:44:00.090Z,100832.38
2022-11-08T01:46:43.683Z,100827.38
2022-11-08T01:49:54.630Z,100831.19
2022-11-08T01:52:29.198Z,100828.72
2022-11-08T01:55:08.613Z,100835.50
2022-11-08T01:57:49.516Z,100830.53
2022-11-08T02:00:17.640Z,100827.19
2022-11-08T02:02:49.858Z,100832.09
2022-11-08T02:05:27.618Z,100825.53
2022-11-08T02:08:12.579Z,100817.34
2022-11-08T02:10:42.447Z,100820.06
2022-11-08T02:13:14.908Z,100825.31
2022-11-08T02:15:42.880Z,100824.22
2022-11-08T02:18:10.481Z,100820.75
2022-11-08T02:20:37.316Z,100825.97
2022-11-08T02:23:14.425Z,100833.34
2022-11-08T02:25:40.976Z,100825.97
2022-11-08T02:28:07.621Z,100821.94
2022-11-08T02:30:35.401Z,100824.41
2022-11-08T02:33:18.724Z,100826.31
2022-11-08T02:35:49.942Z,100817.06
2022-11-08T02:38:17.467Z,100813.81
2022-11-08T02:40:52.064Z,100817.63
2022-11-08T02:43:18.908Z,100809.19
2022-11-08T02:45:45.765Z,100816.06
2022-11-08T02:48:13.042Z,100808.44
2022-11-08T02:50:39.969Z,100814.50
2022-11-08T02:53:08.505Z,100812.34
2022-11-08T02:55:35.476Z,100820.53
2022-11-08T02:58:02.261Z,100822.19
2022-11-08T03:00:29.826Z,100819.47
2022-11-08T03:02:57.679Z,100816.47
2022-11-08T03:05:25.958Z,100813.75
2022-11-08T03:07:53.689Z,100818.41
2022-11-08T03:10:21.489Z,100811.88
2022-11-08T03:12:54.518Z,100814.00
2022-11-08T03:15:21.016Z,100812.69
2022-11-08T03:17:47.492Z,100813.53
2022-11-08T03:20:14.002Z,100819.81
2022-11-08T03:22:40.507Z,100808.06
2022-11-08T03:25:07.614Z,100804.72
2022-11-08T03:27:34.084Z,100801.41
2022-11-08T03:30:00.617Z,100803.56
2022-11-08T03:32:27.116Z,100804.06
2022-11-08T03:34:53.659Z,100814.41
2022-11-08T03:37:20.214Z,100812.16
2022-11-08T03:39:46.708Z,100807.78
2022-11-08T03:42:13.223Z,100803.66
2022-11-08T03:44:39.732Z,100806.84
2022-11-08T03:47:06.230Z,100812.81
2022-11-08T03:49:32.740Z,100816.88
2022-11-08T03:51:59.198Z,100812.47
2022-11-08T03:54:25.719Z,100821.75
2022-11-08T03:56:52.219Z,100808.84
2022-11-08T03:59:18.706Z,100814.50
2022-11-08T04:01:45.291Z,100798.63
2022-11-08T04:04:11.917Z,100815.28
2022-11-08T04:06:39.434Z,100814.41
2022-11-08T04:09:06.350Z,100813.84
2022-11-08T04:11:51.459Z,100810.53
2022-11-08T04:14:36.419Z,100806.63
2022-11-08T04:17:02.992Z,100802.72
2022-11-08T04:19:47.828Z,100807.59
2022-11-08T04:22:14.398Z,100804.75
2022-11-08T04:24:40.961Z,100801.22
2022-11-08T04:27:07.502Z,100798.75
2022-11-08T04:29:34.074Z,100800.28
2022-11-08T04:32:00.553Z,100807.91
2022-11-08T04:34:27.138Z,100804.56
2022-11-08T04:36:54.354Z,100796.88
2022-11-08T04:39:20.915Z,100801.16
2022-11-08T04:41:47.412Z,100804.34
2022-11-08T04:44:15.643Z,100791.47
2022-11-08T04:46:42.164Z,100800.72
2022-11-08T04:49:08.962Z,100802.84
2022-11-08T04:51:35.816Z,100795.97
2022-11-08T04:54:05.055Z,100804.63
2022-11-08T04:56:32.248Z,100802.16
2022-11-08T04:59:00.135Z,100788.97
2022-11-08T05:01:31.097Z,100801.69
2022-11-08T05:03:58.320Z,100794.81
2022-11-08T05:06:28.051Z,100794.47
2022-11-08T05:08:56.155Z,100790.88
2022-11-08T05:11:25.141Z,100792.56
2022-11-08T05:13:52.484Z,100793.63
2022-11-08T05:16:30.367Z,100793.28
2022-11-08T05:18:57.237Z,100784.75
2022-11-08T05:21:43.515Z,100788.28
2022-11-08T05:24:12.993Z,100775.13
2022-11-08T05:26:42.864Z,100785.44
2022-11-08T05:29:09.924Z,100785.69
2022-11-08T05:31:36.480Z,100784.25
2022-11-08T05:34:03.426Z,100780.91
2022-11-08T05:36:30.199Z,100777.03
2022-11-08T05:38:57.157Z,100775.13
2022-11-08T05:41:25.256Z,100777.25
2022-11-08T05:43:54.306Z,100774.19
2022-11-08T05:46:22.658Z,100778.22
2022-11-08T05:48:49.661Z,100769.22
2022-11-08T05:51:18.342Z,100770.63
2022-11-08T05:53:46.924Z,100764.81
2022-11-08T05:56:13.410Z,100769.09
2022-11-08T05:58:39.974Z,100767.91
2022-11-08T06:01:14.666Z,100769.69
2022-11-08T06:03:41.568Z,100765.53
2022-11-08T06:06:11.742Z,100758.41
2022-11-08T06:08:39.068Z,100766.84
2022-11-08T06:11:07.659Z,100758.09
2022-11-08T06:13:34.902Z,100764.84
2022-11-08T06:16:03.064Z,100769.44
2022-11-08T06:18:30.599Z,100763.19
2022-11-08T06:21:02.431Z,100761.50
2022-11-08T06:23:29.476Z,100752.72
2022-11-08T06:25:56.147Z,100763.06
2022-11-08T06:28:23.032Z,100762.47
2022-11-08T06:30:50.081Z,100757.50
2022-11-08T06:33:17.214Z,100758.78
2022-11-08T06:35:43.975Z,100750.84
2022-11-08T06:38:10.474Z,100745.41
2022-11-08T06:40:38.280Z,100758.19
2022-11-08T06:43:05.089Z,100758.44
2022-11-08T06:45:32.293Z,100758.66
2022-11-08T06:48:00.210Z,100758.44
2022-11-08T06:50:27.858Z,100758.91
2022-11-08T06:53:02.388Z,100761.63
2022-11-08T06:55:29.907Z,100754.53
2022-11-08T06:57:56.726Z,100753.91
2022-11-08T07:00:24.054Z,100752.25
2022-11-08T07:02:57.964Z,100760.22
2022-11-08T07:05:25.953Z,100759.97
2022-11-08T07:07:52.562Z,100757.25
2022-11-08T07:10:21.206Z,100758.31
2022-11-08T07:12:48.646Z,100753.47
2022-11-08T07:15:15.577Z,100762.44
2022-11-08T07:17:42.084Z,100758.91
2022-11-08T07:20:09.542Z,100756.41
2022-11-08T07:22:36.069Z,100759.38
2022-11-08T07:25:02.667Z,100753.91
2022-11-08T07:27:29.143Z,100751.78
2022-11-08T07:29:55.692Z,100738.41
2022-11-08T07:32:22.160Z,100742.56
2022-11-08T07:34:48.689Z,100750.50
2022-11-08T07:37:15.197Z,100745.03
2022-11-08T07:39:41.718Z,100731.41
2022-11-08T07:42:08.257Z,100742.69
2022-11-08T07:44:34.718Z,100745.41
2022-11-08T07:47:01.232Z,100745.16
2022-11-08T07:49:27.717Z,100740.06
2022-11-08T07:51:54.218Z,100736.03
2022-11-08T07:54:20.684Z,100741.25
2022-11-08T07:56:47.181Z,100743.50
2022-11-08T07:59:13.693Z,100732.59
2022-11-08T08:01:40.247Z,100727.75
2022-11-08T08:04:06.833Z,100731.66
2022-11-08T08:06:33.747Z,100732.47
2022-11-08T08:09:01.065Z,100736.97
2022-11-08T08:11:33.350Z,100744.91
2022-11-08T08:14:00.265Z,100742.78
2022-11-08T08:16:26.799Z,100742.28
2022-11-08T08:18:56.435Z,100735.31
2022-11-08T08:21:23.782Z,100738.63
2022-11-08T08:23:50.344Z,100743.81
2022-11-08T08:26:16.860Z,100742.31
2022-11-08T08:28:43.367Z,100743.72
2022-11-08T08:31:09.924Z,100738.38
2022-11-08T08:33:37.873Z,100740.59
2022-11-08T08:36:05.110Z,100735.25
2022-11-08T08:38:33.423Z,100727.69
2022-11-08T08:41:01.025Z,100728.03
2022-11-08T08:43:28.993Z,100718.06
2022-11-08T08:45:59.666Z,100721.72
2022-11-08T08:48:26.156Z,100712.47
2022-11-08T08:50:52.709Z,100719.44
2022-11-08T08:53:19.602Z,100702.09
2022-11-08T08:55:48.066Z,100706.25
2022-11-08T08:58:14.789Z,100694.81
2022-11-08T09:03:28.077Z,100694.44
2022-11-08T09:05:57.448Z,100689.91
2022-11-08T09:08:24.796Z,100692.72
2022-11-08T09:10:55.863Z,100695.06
2022-11-08T09:13:23.136Z,100692.91
2022-11-08T09:15:49.728Z,100685.41
2022-11-08T09:18:17.216Z,100673.97
2022-11-08T09:20:47.478Z,100683.66
2022-11-08T09:23:17.054Z,100685.66
2022-11-08T09:25:43.767Z,100672.56
2022-11-08T09:28:10.466Z,100682.75
2022-11-08T09:30:36.956Z,100672.72
2022-11-08T09:33:03.811Z,100677.72
2022-11-08T09:35:30.615Z,100681.59
2022-11-08T09:37:57.968Z,100665.78
2022-11-08T09:40:33.211Z,100670.47
2022-11-08T09:43:37.155Z,100668.91
2022-11-08T09:46:03.743Z,100671.72
2022-11-08T09:48:35.517Z,100675.84
2022-11-08T09:51:24.067Z,100677.84
2022-11-08T09:53:59.642Z,100660.91
2022-11-08T09:56:35.571Z,100673.84
2022-11-08T09:59:14.298Z,100669.78
2022-11-08T10:01:41.030Z,100658.91
2022-11-08T10:04:19.380Z,100653.78
2022-11-08T10:07:19.768Z,100646.72
2022-11-08T10:10:01.527Z,100637.84
2022-11-08T10:12:55.132Z,100633.78
2022-11-08T10:15:34.529Z,100640.13
2022-11-08T10:18:10.476Z,100634.72
2022-11-08T10:21:00.679Z,100626.84
2022-11-08T10:23:55.430Z,100616.22
2022-11-08T10:26:28.317Z,100610.53
2022-11-08T10:29:22.161Z,100616.13
2022-11-08T10:31:56.255Z,100608.47
2022-11-08T10:34:27.128Z,100598.97
2022-11-08T10:37:03.269Z,100582.38
2022-11-08T10:39:37.208Z,100573.63
2022-11-08T10:42:17.009Z,100580.81
2022-11-08T10:44:44.197Z,100584.13
2022-11-08T10:47:23.921Z,100571.31
2022-11-08T10:49:50.661Z,100568.63
2022-11-08T10:52:32.102Z,100561.84
2022-11-08T10:54:59.855Z,100571.75
2022-11-08T10:57:38.845Z,100580.03
2022-11-08T11:00:20.626Z,100571.84
2022-11-08T11:02:58.967Z,100566.41
2022-11-08T11:05:57.678Z,100557.09
2022-11-08T11:08:24.897Z,100561.00
2022-11-08T11:10:51.834Z,100557.72
2022-11-08T11:13:18.351Z,100557.25
2022-11-08T11:15:57.376Z,100548.25
2022-11-08T11:18:26.061Z,100550.75
2022-11-08T11:21:17.880Z,100549.16
2022-11-08T11:23:47.570Z,100557.94
2022-11-08T11:26:45.771Z,100556.88
2022-11-08T11:29:22.218Z,100556.91
2022-11-08T11:31:51.603Z,100560.25
2022-11-08T11:34:18.070Z,100555.28
2022-11-08T11:36:50.990Z,100553.13
2022-11-08T11:39:36.943Z,100548.16
2022-11-08T11:42:44.374Z,100539.97
2022-11-08T11:45:28.388Z,100528.97
2022-11-08T11:48:03.537Z,100518.56
2022-11-08T11:50:34.124Z,100515.81
2022-11-08T11:53:04.976Z,100515.03
2022-11-08T11:55:45.633Z,100500.75
2022-11-08T11:58:30.436Z,100491.41
2022-11-08T12:01:02.969Z,100499.38
2022-11-08T12:03:47.771Z,100500.47
2022-11-08T12:06:25.720Z,100492.50
2022-11-08T12:09:01.437Z,100492.78
2022-11-08T12:11:44.388Z,100496.63
2022-11-08T12:14:43.271Z,100492.53
2022-11-08T12:17:37.442Z,100494.69
2022-11-08T12:20:11.344Z,100491.72
2022-11-08T12:22:45.960Z,100490.59
2022-11-08T12:25:18.641Z,100486.22
2022-11-08T12:28:20.260Z,100479.88
2022-11-08T12:31:08.042Z,100492.81
2022-11-08T12:33:58.052Z,100491.16
2022-11-08T12:36:46.216Z,100485.66
2022-11-08T12:39:34.291Z,100474.97
2022-11-08T12:42:14.559Z,100460.69
2022-11-08T12:44:59.811Z,100474.13
2022-11-08T12:47:46.155Z,100464.53
2022-11-08T12:50:25.829Z,100473.03
2022-11-08T12:52:52.308Z,100473.06
2022-11-08T12:55:32.796Z,100469.22
2022-11-08T12:58:06.028Z,100467.56
2022-11-08T13:00:35.775Z,100456.31
2022-11-08T13:03:30.771Z,100465.91
2022-11-08T13:06:12.722Z,100467.56
2022-11-08T13:09:05.714Z,100460.44
2022-11-08T13:11:56.741Z,100463.44
2022-11-08T13:14:24.284Z,100459.91
2022-11-08T13:17:09.120Z,100448.34
2022-11-08T13:19:47.734Z,100448.91
2022-11-08T13:22:29.213Z,100451.66
2022-11-08T13:24:56.829Z,100451.66
2022-11-08T13:27:39.762Z,100442.88
2022-11-08T13:30:12.033Z,100441.78
2022-11-08T13:32:46.548Z,100426.97
2022-11-08T13:35:28.262Z,100436.00
2022-11-08T13:38:19.920Z,100436.28
2022-11-08T13:41:11.884Z,100434.09
2022-11-08T13:43:39.225Z,100431.91
2022-11-08T13:46:25.877Z,100442.59
2022-11-08T13:48:58.460Z,100430.53
2022-11-08T13:51:32.591Z,100435.19
2022-11-08T13:54:24.073Z,100430.00
2022-11-08T13:56:52.906Z,100426.69
2022-11-08T13:59:31.613Z,100432.97
2022-11-08T14:02:01.013Z,100428.06
2022-11-08T14:04:34.840Z,100441.22
2022-11-08T14:07:10.221Z,100424.75
2022-11-08T14:09:50.673Z,100428.34
2022-11-08T14:12:53.922Z,100427.50
2022-11-08T14:15:46.490Z,100425.88
2022-11-08T14:18:39.133Z,100412.41
2022-11-08T14:21:07.595Z,100407.47
2022-11-08T14:23:36.527Z,100417.63
2022-11-08T14:26:13.880Z,100413.78
2022-11-08T14:28:43.414Z,100421.19
2022-11-08T14:31:26.388Z,100431.06
2022-11-08T14:33:54.249Z,100428.63
2022-11-08T14:36:22.330Z,100417.34
2022-11-08T14:39:04.165Z,100420.91
2022-11-08T14:41:33.316Z,100414.91
2022-11-08T14:44:01.813Z,100413.53
2022-11-08T14:46:37.170Z,100415.41
2022-11-08T14:49:10.572Z,100406.66
2022-11-08T14:51:37.083Z,100409.94
2022-11-08T14:54:03.682Z,100399.25
2022-11-08T14:56:38.150Z,100391.28
2022-11-08T14:59:06.989Z,100395.69
2022-11-08T15:01:35.332Z,100395.69
2022-11-08T15:04:13.607Z,100393.47
2022-11-08T15:06:45.732Z,100391.28
2022-11-08T15:09:20.673Z,100397.28
2022-11-08T15:11:54.431Z,100390.44
2022-11-08T15:14:24.060Z,100396.19
2022-11-08T15:16:54.597Z,100383.56
2022-11-08T15:19:29.969Z,100400.88
2022-11-08T15:21:58.410Z,100394.00
2022-11-08T15:24:35.735Z,100399.78
2022-11-08T15:27:15.737Z,100382.75
2022-11-08T15:30:03.091Z,100380.81
2022-11-08T15:32:37.333Z,100365.50
2022-11-08T15:35:05.246Z,100373.97
2022-11-08T15:37:37.786Z,100375.91
2022-11-08T15:40:28.380Z,100378.38
2022-11-08T15:42:54.898Z,100383.56
2022-11-08T15:45:32.281Z,100380.84
2022-11-08T15:48:08.244Z,100378.66
2022-11-08T15:50:34.944Z,100382.50
2022-11-08T15:53:04.217Z,100378.66
2022-11-08T15:55:39.823Z,100380.31
2022-11-08T15:58:16.305Z,100375.91
2022-11-08T16:00:48.065Z,100378.09
2022-11-08T16:03:14.846Z,100377.28
2022-11-08T16:05:41.539Z,100379.47
2022-11-08T16:08:08.080Z,100384.94
2022-11-08T16:10:37.209Z,100379.22
2022-11-08T16:13:05.088Z,100382.22
2022-11-08T16:15:34.258Z,100377.00
2022-11-08T16:18:02.525Z,100376.47
2022-11-08T16:20:36.753Z,100367.69
2022-11-08T16:23:06.178Z,100362.75
2022-11-08T16:25:41.665Z,100355.34
2022-11-08T16:28:19.798Z,100343.28
2022-11-08T16:30:47.712Z,100339.69
2022-11-08T16:33:25.302Z,100360.81
2022-11-08T16:35:55.139Z,100373.16
2022-11-08T16:38:28.817Z,100366.03
2022-11-08T16:40:55.877Z,100359.72
2022-11-08T16:43:22.435Z,100363.56
2022-11-08T16:46:06.351Z,100370.41
2022-11-08T16:48:35.990Z,100372.06
2022-11-08T16:51:04.940Z,100375.34
2022-11-08T16:53:32.425Z,100380.81
2022-11-08T16:55:59.304Z,100372.06
2022-11-08T16:58:27.955Z,100383.31
2022-11-08T17:00:55.831Z,100387.16
2022-11-08T17:03:25.081Z,100390.41
2022-11-08T17:05:53.826Z,100391.22
2022-11-08T17:08:20.814Z,100391.50
2022-11-08T17:10:47.898Z,100391.75
2022-11-08T17:13:15.866Z,100395.63
2022-11-08T17:15:42.516Z,100386.00
2022-11-08T17:18:14.507Z,100391.22
2022-11-08T17:20:41.500Z,100386.81
2022-11-08T17:23:09.124Z,100383.78
2022-11-08T17:25:37.950Z,100392.03
2022-11-08T17:28:04.717Z,100396.69
2022-11-08T17:30:31.326Z,100399.44
2022-11-08T17:32:58.291Z,100398.88
2022-11-08T17:35:24.809Z,100393.66
2022-11-08T17:37:53.339Z,100392.00
2022-11-08T17:40:20.223Z,100389.81
2022-11-08T17:42:46.722Z,100402.91
2022-11-08T17:45:13.718Z,100393.88
2022-11-08T17:47:42.306Z,100400.47
2022-11-08T17:50:10.054Z,100405.38
2022-11-08T17:52:36.800Z,100403.75
2022-11-08T17:55:03.962Z,100413.31
2022-11-08T17:57:30.485Z,100414.13
2022-11-08T17:59:57.180Z,100418.81
2022-11-08T18:02:23.794Z,100416.06
2022-11-08T18:04:50.378Z,100424.81
2022-11-08T18:07:16.906Z,100410.00
2022-11-08T18:09:43.467Z,100416.28
2022-11-08T18:12:09.983Z,100402.28
2022-11-08T18:14:36.516Z,100397.38
2022-11-08T18:17:05.094Z,100409.69
2022-11-08T18:19:31.736Z,100399.81
2022-11-08T18:22:00.238Z,100394.88
2022-11-08T18:24:26.798Z,100395.97
2022-11-08T18:26:53.722Z,100400.91
2022-11-08T18:29:20.430Z,100397.06
2022-11-08T18:31:46.924Z,100411.84
2022-11-08T18:34:13.483Z,100403.63
2022-11-08T18:36:40.019Z,100407.97
2022-11-08T18:39:06.499Z,100414.00
2022-11-08T18:41:33.912Z,100405.78
2022-11-08T18:44:01.439Z,100403.06
2022-11-08T18:46:32.978Z,100398.09
2022-11-08T18:48:59.796Z,100406.31
2022-11-08T18:51:26.563Z,100391.00
2022-11-08T18:53:53.527Z,100393.16
2022-11-08T18:56:21.042Z,100403.00
2022-11-08T18:58:47.600Z,100400.81
2022-11-08T19:01:14.888Z,100398.63
2022-11-08T19:03:41.807Z,100395.63
2022-11-08T19:06:08.575Z,100398.09
2022-11-08T19:08:36.769Z,100401.66
2022-11-08T19:11:07.938Z,100395.91
2022-11-08T19:13:36.952Z,100397.00
2022-11-08T19:16:15.616Z,100407.97
2022-11-08T19:18:42.960Z,100404.69
2022-11-08T19:21:15.019Z,100410.66
2022-11-08T19:23:42.400Z,100426.31
2022-11-08T19:26:29.456Z,100405.75
2022-11-08T19:28:57.644Z,100399.75
2022-11-08T19:31:25.740Z,100404.41
2022-11-08T19:33:54.002Z,100407.41
2022-11-08T19:36:27.085Z,100406.56
2022-11-08T19:38:54.929Z,100402.75
2022-11-08T19:41:23.828Z,100406.31
2022-11-08T19:43:50.659Z,100405.75
2022-11-08T19:46:20.314Z,100403.31
2022-11-08T19:48:49.303Z,100402.47
2022-11-08T19:51:20.900Z,100407.13
2022-11-08T19:53:47.815Z,100400.81
2022-11-08T19:56:17.097Z,100405.75
2022-11-08T19:58:44.348Z,100399.69
2022-11-08T20:01:15.022Z,100406.53
2022-11-08T20:03:42.139Z,100407.88
2022-11-08T20:06:09.841Z,100414.19
2022-11-08T20:08:37.145Z,100421.03
2022-11-08T20:11:21.225Z,100416.63
2022-11-08T20:13:47.823Z,100428.09
2022-11-08T20:16:14.298Z,100429.22
2022-11-08T20:18:41.095Z,100422.34
2022-11-08T20:21:09.150Z,100422.09
2022-11-08T20:23:36.629Z,100423.97
2022-11-08T20:26:07.975Z,100422.09
2022-11-08T20:28:36.335Z,100426.69
2022-11-08T20:31:10.870Z,100426.66
2022-11-08T20:33:40.333Z,100429.13
2022-11-08T20:36:10.786Z,100424.72
2022-11-08T20:38:37.848Z,100428.28
2022-11-08T20:41:06.163Z,100435.13
2022-11-08T20:43:33.033Z,100423.38
2022-11-08T20:46:07.749Z,100423.88
2022-11-08T20:48:34.645Z,100434.56
2022-11-08T20:51:02.780Z,100434.25
2022-11-08T20:53:32.199Z,100432.00
2022-11-08T20:56:03.841Z,100427.88
2022-11-08T20:58:32.410Z,100437.44
2022-11-08T21:01:00.333Z,100432.56
2022-11-08T21:03:28.326Z,100430.91
2022-11-08T21:06:00.738Z,100434.97
2022-11-08T21:11:15.294Z,100431.69
2022-11-08T21:13:43.681Z,100433.59
2022-11-08T21:16:29.440Z,100432.50
2022-11-08T21:18:57.613Z,100427.84
2022-11-08T21:21:25.094Z,100428.97
2022-11-08T21:23:51.784Z,100431.13
2022-11-08T21:26:19.299Z,100426.47
2022-11-08T21:28:46.438Z,100420.19
2022-11-08T21:31:13.769Z,100430.31
2022-11-08T21:33:40.550Z,100435.25
2022-11-08T21:36:08.791Z,100419.38
2022-11-08T21:38:37.378Z,100414.13
2022-11-08T21:41:05.934Z,100424.00
2022-11-08T21:43:43.375Z,100428.91
2022-11-08T21:46:18.853Z,100426.72
2022-11-08T21:48:46.081Z,100430.53
2022-11-08T21:51:13.196Z,100430.31
2022-11-08T21:53:48.143Z,100434.66
2022-11-08T21:56:21.015Z,100428.38
2022-11-08T21:58:47.531Z,100418.25
2022-11-08T22:01:14.162Z,100423.72
2022-11-08T22:03:40.691Z,100433.03
2022-11-08T22:06:07.426Z,100430.81
2022-11-08T22:08:33.957Z,100425.34
2022-11-08T22:11:00.498Z,100433.56
2022-11-08T22:13:27.892Z,100431.38
2022-11-08T22:15:54.669Z,100431.09
2022-11-08T22:18:36.379Z,100434.41
2022-11-08T22:21:26.342Z,100432.16
2022-11-08T22:23:52.884Z,100443.94
2022-11-08T22:26:19.425Z,100434.91
2022-11-08T22:28:45.961Z,100433.19
2022-11-08T22:31:12.527Z,100434.31
2022-11-08T22:33:39.096Z,100422.53
2022-11-08T22:36:05.922Z,100431.81
2022-11-08T22:38:32.410Z,100432.66
2022-11-08T22:40:59.313Z,100438.09
2022-11-08T22:43:25.869Z,100442.16
2022-11-08T22:45:52.400Z,100423.28
2022-11-08T22:48:19.329Z,100426.00
2022-11-08T22:51:08.093Z,100420.22
2022-11-08T22:53:35.405Z,100435.00
2022-11-08T22:56:10.704Z,100428.13
2022-11-08T22:58:38.604Z,100410.59
2022-11-08T23:01:05.811Z,100427.81
2022-11-08T23:03:32.326Z,100424.00
2022-11-08T23:05:58.962Z,100424.81
2022-11-08T23:08:26.933Z,100415.22
2022-11-08T23:11:12.873Z,100413.88
2022-11-08T23:13:58.540Z,100426.75
2022-11-08T23:16:38.041Z,100415.81
2022-11-08T23:19:38.596Z,100420.16
2022-11-08T23:22:25.799Z,100422.53
2022-11-08T23:24:52.318Z,100420.06
2022-11-08T23:27:38.714Z,100424.47
2022-11-08T23:30:24.839Z,100423.63
2022-11-08T23:32:51.810Z,100435.09
2022-11-08T23:35:20.414Z,100425.22
2022-11-08T23:37:47.378Z,100436.69
2022-11-08T23:40:34.952Z,100438.03
2022-11-08T23:43:31.354Z,100440.19
2022-11-08T23:46:03.644Z,100440.44
2022-11-08T23:48:30.123Z,100446.72
2022-11-08T23:50:56.710Z,100436.06
2022-11-08T23:53:27.398Z,100432.75
2022-11-08T23:55:54.713Z,100438.78
2022-11-08T23:58:22.165Z,100434.97
